sensor_id;sensor_type;location;lat;lon;timestamp;P1;durP1;ratioP1;P2;durP2;ratioP2
23163;SDS011;31429;42.674;23.350;2023-01-09T00:00:48;104.13;;;73.00;;
23163;SDS011;31429;42.674;23.350;2023-01-09T00:01:50;108.57;;;76.63;;
23163;SDS011;31429;42.674;23.350;2023-01-09T00:02:51;109.32;;;75.63;;
23163;SDS011;31429;42.674;23.350;2023-01-09T00:03:52;106.37;;;74.70;;
23163;SDS011;31429;42.674;23.350;2023-01-09T00:04:53;100.18;;;71.13;;
23163;SDS011;31429;42.674;23.350;2023-01-09T00:05:54;105.60;;;76.53;;
23163;SDS011;31429;42.674;23.350;2023-01-09T00:06:54;106.60;;;77.50;;
23163;SDS011;31429;42.674;23.350;2023-01-09T00:07:55;115.47;;;79.00;;
23163;SDS011;31429;42.674;23.350;2023-01-09T00:08:56;108.87;;;78.27;;
23163;SDS011;31429;42.674;23.350;2023-01-09T00:09:56;105.87;;;76.30;;
23163;SDS011;31429;42.674;23.350;2023-01-09T00:10:57;116.67;;;83.07;;
23163;SDS011;31429;42.674;23.350;2023-01-09T00:11:58;118.10;;;79.47;;
23163;SDS011;31429;42.674;23.350;2023-01-09T00:12:58;112.27;;;80.63;;
23163;SDS011;31429;42.674;23.350;2023-01-09T00:14:00;105.43;;;79.07;;
23163;SDS011;31429;42.674;23.350;2023-01-09T00:15:01;107.13;;;79.90;;
23163;SDS011;31429;42.674;23.350;2023-01-09T00:16:03;110.60;;;81.70;;
23163;SDS011;31429;42.674;23.350;2023-01-09T00:17:04;118.90;;;84.73;;
23163;SDS011;31429;42.674;23.350;2023-01-09T00:18:04;119.53;;;83.13;;
23163;SDS011;31429;42.674;23.350;2023-01-09T00:19:05;112.53;;;80.70;;
23163;SDS011;31429;42.674;23.350;2023-01-09T00:20:08;120.40;;;86.00;;
23163;SDS011;31429;42.674;23.350;2023-01-09T00:21:09;117.88;;;83.40;;
23163;SDS011;31429;42.674;23.350;2023-01-09T00:22:11;119.80;;;83.40;;
23163;SDS011;31429;42.674;23.350;2023-01-09T00:23:12;116.17;;;82.63;;
23163;SDS011;31429;42.674;23.350;2023-01-09T00:24:12;112.50;;;78.17;;
23163;SDS011;31429;42.674;23.350;2023-01-09T00:25:13;108.90;;;78.20;;
23163;SDS011;31429;42.674;23.350;2023-01-09T00:26:15;118.47;;;82.23;;
23163;SDS011;31429;42.674;23.350;2023-01-09T00:27:17;111.15;;;80.72;;
23163;SDS011;31429;42.674;23.350;2023-01-09T00:28:18;110.03;;;78.85;;
23163;SDS011;31429;42.674;23.350;2023-01-09T00:29:20;113.37;;;80.27;;
23163;SDS011;31429;42.674;23.350;2023-01-09T00:30:21;108.10;;;78.13;;
23163;SDS011;31429;42.674;23.350;2023-01-09T00:31:21;106.23;;;78.20;;
23163;SDS011;31429;42.674;23.350;2023-01-09T00:32:22;108.90;;;76.87;;
23163;SDS011;31429;42.674;23.350;2023-01-09T00:33:23;113.03;;;79.70;;
23163;SDS011;31429;42.674;23.350;2023-01-09T00:34:27;114.45;;;82.47;;
23163;SDS011;31429;42.674;23.350;2023-01-09T00:35:28;122.70;;;84.10;;
23163;SDS011;31429;42.674;23.350;2023-01-09T00:36:29;115.43;;;81.33;;
23163;SDS011;31429;42.674;23.350;2023-01-09T00:37:29;118.70;;;83.97;;
23163;SDS011;31429;42.674;23.350;2023-01-09T00:38:30;111.33;;;82.23;;
23163;SDS011;31429;42.674;23.350;2023-01-09T00:39:31;114.60;;;84.47;;
23163;SDS011;31429;42.674;23.350;2023-01-09T00:40:31;118.60;;;83.93;;
23163;SDS011;31429;42.674;23.350;2023-01-09T00:41:34;122.05;;;85.47;;
23163;SDS011;31429;42.674;23.350;2023-01-09T00:42:36;112.10;;;83.68;;
23163;SDS011;31429;42.674;23.350;2023-01-09T00:43:38;116.60;;;83.97;;
23163;SDS011;31429;42.674;23.350;2023-01-09T00:44:45;121.50;;;86.10;;
23163;SDS011;31429;42.674;23.350;2023-01-09T00:45:48;125.07;;;87.60;;
23163;SDS011;31429;42.674;23.350;2023-01-09T00:46:49;123.28;;;88.13;;
23163;SDS011;31429;42.674;23.350;2023-01-09T00:47:54;118.63;;;84.85;;
23163;SDS011;31429;42.674;23.350;2023-01-09T00:48:58;128.45;;;89.50;;
23163;SDS011;31429;42.674;23.350;2023-01-09T00:50:02;116.85;;;83.15;;
23163;SDS011;31429;42.674;23.350;2023-01-09T00:51:05;124.47;;;86.85;;
23163;SDS011;31429;42.674;23.350;2023-01-09T00:52:08;121.85;;;85.55;;
23163;SDS011;31429;42.674;23.350;2023-01-09T00:53:12;122.78;;;86.78;;
23163;SDS011;31429;42.674;23.350;2023-01-09T00:54:16;120.00;;;85.22;;
23163;SDS011;31429;42.674;23.350;2023-01-09T00:55:19;119.38;;;86.55;;
23163;SDS011;31429;42.674;23.350;2023-01-09T00:56:19;117.60;;;86.72;;
23163;SDS011;31429;42.674;23.350;2023-01-09T00:57:21;116.22;;;84.63;;
23163;SDS011;31429;42.674;23.350;2023-01-09T00:58:22;115.60;;;84.83;;
23163;SDS011;31429;42.674;23.350;2023-01-09T00:59:23;117.93;;;82.87;;
23163;SDS011;31429;42.674;23.350;2023-01-09T01:00:27;115.20;;;83.78;;
23163;SDS011;31429;42.674;23.350;2023-01-09T01:01:27;110.82;;;80.78;;
23163;SDS011;31429;42.674;23.350;2023-01-09T01:02:28;109.97;;;82.68;;
23163;SDS011;31429;42.674;23.350;2023-01-09T01:03:29;116.57;;;82.03;;
23163;SDS011;31429;42.674;23.350;2023-01-09T01:04:30;114.57;;;81.60;;
23163;SDS011;31429;42.674;23.350;2023-01-09T01:05:49;107.53;;;77.75;;
23163;SDS011;31429;42.674;23.350;2023-01-09T01:07:08;110.18;;;79.28;;
23163;SDS011;31429;42.674;23.350;2023-01-09T01:08:27;105.30;;;78.40;;
23163;SDS011;31429;42.674;23.350;2023-01-09T01:09:27;111.60;;;79.77;;
23163;SDS011;31429;42.674;23.350;2023-01-09T01:10:28;104.73;;;78.17;;
23163;SDS011;31429;42.674;23.350;2023-01-09T01:11:30;108.33;;;78.53;;
23163;SDS011;31429;42.674;23.350;2023-01-09T01:12:31;103.65;;;76.53;;
23163;SDS011;31429;42.674;23.350;2023-01-09T01:13:32;99.27;;;73.37;;
23163;SDS011;31429;42.674;23.350;2023-01-09T01:14:32;98.70;;;71.97;;
23163;SDS011;31429;42.674;23.350;2023-01-09T01:15:36;93.73;;;69.27;;
23163;SDS011;31429;42.674;23.350;2023-01-09T01:16:38;100.22;;;72.13;;
23163;SDS011;31429;42.674;23.350;2023-01-09T01:17:40;96.30;;;71.78;;
23163;SDS011;31429;42.674;23.350;2023-01-09T01:18:40;99.53;;;71.43;;
23163;SDS011;31429;42.674;23.350;2023-01-09T01:19:41;97.87;;;69.17;;
23163;SDS011;31429;42.674;23.350;2023-01-09T01:20:42;99.63;;;71.40;;
23163;SDS011;31429;42.674;23.350;2023-01-09T01:21:44;97.97;;;71.78;;
23163;SDS011;31429;42.674;23.350;2023-01-09T01:22:44;96.13;;;71.43;;
23163;SDS011;31429;42.674;23.350;2023-01-09T01:23:45;90.17;;;67.50;;
23163;SDS011;31429;42.674;23.350;2023-01-09T01:24:46;99.83;;;70.13;;
23163;SDS011;31429;42.674;23.350;2023-01-09T01:25:47;94.17;;;68.73;;
23163;SDS011;31429;42.674;23.350;2023-01-09T01:26:48;91.35;;;66.63;;
23163;SDS011;31429;42.674;23.350;2023-01-09T01:27:49;96.90;;;70.33;;
23163;SDS011;31429;42.674;23.350;2023-01-09T01:28:50;99.88;;;70.45;;
23163;SDS011;31429;42.674;23.350;2023-01-09T01:29:50;99.43;;;71.37;;
23163;SDS011;31429;42.674;23.350;2023-01-09T01:30:52;103.03;;;71.03;;
23163;SDS011;31429;42.674;23.350;2023-01-09T01:31:53;97.93;;;70.90;;
23163;SDS011;31429;42.674;23.350;2023-01-09T01:32:54;96.87;;;69.83;;
23163;SDS011;31429;42.674;23.350;2023-01-09T01:33:54;97.57;;;71.33;;
23163;SDS011;31429;42.674;23.350;2023-01-09T01:34:56;94.60;;;70.20;;
23163;SDS011;31429;42.674;23.350;2023-01-09T01:36:00;98.80;;;70.73;;
23163;SDS011;31429;42.674;23.350;2023-01-09T01:37:02;98.88;;;73.03;;
23163;SDS011;31429;42.674;23.350;2023-01-09T01:38:02;92.27;;;70.53;;
23163;SDS011;31429;42.674;23.350;2023-01-09T01:39:03;99.03;;;73.65;;
23163;SDS011;31429;42.674;23.350;2023-01-09T01:40:06;100.10;;;73.20;;
23163;SDS011;31429;42.674;23.350;2023-01-09T01:41:08;103.63;;;75.57;;
23163;SDS011;31429;42.674;23.350;2023-01-09T01:42:10;106.18;;;77.97;;
23163;SDS011;31429;42.674;23.350;2023-01-09T01:43:11;103.90;;;74.93;;
23163;SDS011;31429;42.674;23.350;2023-01-09T01:45:46;100.43;;;76.28;;
23163;SDS011;31429;42.674;23.350;2023-01-09T01:46:48;99.23;;;74.03;;
23163;SDS011;31429;42.674;23.350;2023-01-09T01:47:50;94.90;;;72.07;;
23163;SDS011;31429;42.674;23.350;2023-01-09T01:48:54;96.63;;;72.53;;
23163;SDS011;31429;42.674;23.350;2023-01-09T01:49:59;98.88;;;74.88;;
23163;SDS011;31429;42.674;23.350;2023-01-09T01:51:03;104.20;;;77.20;;
23163;SDS011;31429;42.674;23.350;2023-01-09T01:52:05;98.32;;;73.05;;
23163;SDS011;31429;42.674;23.350;2023-01-09T01:53:11;97.25;;;74.72;;
23163;SDS011;31429;42.674;23.350;2023-01-09T01:54:15;94.80;;;72.50;;
23163;SDS011;31429;42.674;23.350;2023-01-09T01:55:20;93.75;;;68.75;;
23163;SDS011;31429;42.674;23.350;2023-01-09T01:56:23;89.25;;;66.43;;
23163;SDS011;31429;42.674;23.350;2023-01-09T01:57:27;94.68;;;68.97;;
23163;SDS011;31429;42.674;23.350;2023-01-09T01:58:29;86.03;;;66.80;;
23163;SDS011;31429;42.674;23.350;2023-01-09T01:59:31;95.55;;;69.50;;
23163;SDS011;31429;42.674;23.350;2023-01-09T02:00:37;95.72;;;69.03;;
23163;SDS011;31429;42.674;23.350;2023-01-09T02:01:42;92.50;;;69.35;;
23163;SDS011;31429;42.674;23.350;2023-01-09T02:02:45;91.60;;;68.93;;
23163;SDS011;31429;42.674;23.350;2023-01-09T02:03:46;91.82;;;66.30;;
23163;SDS011;31429;42.674;23.350;2023-01-09T02:04:48;90.78;;;69.35;;
23163;SDS011;31429;42.674;23.350;2023-01-09T02:05:52;86.50;;;65.60;;
23163;SDS011;31429;42.674;23.350;2023-01-09T02:06:54;94.33;;;68.20;;
23163;SDS011;31429;42.674;23.350;2023-01-09T02:07:56;87.40;;;66.40;;
23163;SDS011;31429;42.674;23.350;2023-01-09T02:08:56;87.77;;;65.33;;
23163;SDS011;31429;42.674;23.350;2023-01-09T02:09:57;89.10;;;68.57;;
23163;SDS011;31429;42.674;23.350;2023-01-09T02:10:59;85.80;;;64.93;;
23163;SDS011;31429;42.674;23.350;2023-01-09T02:12:13;84.75;;;63.63;;
23163;SDS011;31429;42.674;23.350;2023-01-09T02:13:15;87.38;;;65.28;;
23163;SDS011;31429;42.674;23.350;2023-01-09T02:14:18;82.43;;;62.05;;
23163;SDS011;31429;42.674;23.350;2023-01-09T02:15:21;80.00;;;62.20;;
23163;SDS011;31429;42.674;23.350;2023-01-09T02:16:26;82.10;;;61.60;;
23163;SDS011;31429;42.674;23.350;2023-01-09T02:17:40;75.85;;;58.35;;
23163;SDS011;31429;42.674;23.350;2023-01-09T02:19:05;79.85;;;60.08;;
23163;SDS011;31429;42.674;23.350;2023-01-09T02:20:37;80.82;;;59.92;;
23163;SDS011;31429;42.674;23.350;2023-01-09T02:21:42;77.18;;;59.65;;
23163;SDS011;31429;42.674;23.350;2023-01-09T02:22:54;82.63;;;61.50;;
23163;SDS011;31429;42.674;23.350;2023-01-09T02:24:08;83.75;;;61.95;;
23163;SDS011;31429;42.674;23.350;2023-01-09T02:25:25;83.85;;;63.72;;
23163;SDS011;31429;42.674;23.350;2023-01-09T02:27:01;78.07;;;60.20;;
23163;SDS011;31429;42.674;23.350;2023-01-09T02:28:12;75.18;;;57.78;;
23163;SDS011;31429;42.674;23.350;2023-01-09T02:30:54;76.78;;;59.40;;
23163;SDS011;31429;42.674;23.350;2023-01-09T02:32:03;79.57;;;59.88;;
23163;SDS011;31429;42.674;23.350;2023-01-09T02:33:25;80.20;;;60.35;;
23163;SDS011;31429;42.674;23.350;2023-01-09T02:34:38;77.57;;;58.90;;
23163;SDS011;31429;42.674;23.350;2023-01-09T02:35:49;78.63;;;59.22;;
23163;SDS011;31429;42.674;23.350;2023-01-09T02:37:00;81.68;;;58.17;;
23163;SDS011;31429;42.674;23.350;2023-01-09T02:38:09;77.80;;;57.63;;
23163;SDS011;31429;42.674;23.350;2023-01-09T02:39:22;76.10;;;57.95;;
23163;SDS011;31429;42.674;23.350;2023-01-09T02:40:27;73.82;;;56.97;;
23163;SDS011;31429;42.674;23.350;2023-01-09T02:41:35;72.80;;;58.00;;
23163;SDS011;31429;42.674;23.350;2023-01-09T02:42:42;72.22;;;57.90;;
23163;SDS011;31429;42.674;23.350;2023-01-09T02:43:44;78.22;;;57.17;;
23163;SDS011;31429;42.674;23.350;2023-01-09T02:44:45;78.97;;;59.70;;
23163;SDS011;31429;42.674;23.350;2023-01-09T02:45:46;74.13;;;56.93;;
23163;SDS011;31429;42.674;23.350;2023-01-09T02:46:57;75.90;;;59.37;;
23163;SDS011;31429;42.674;23.350;2023-01-09T02:47:59;75.22;;;59.35;;
23163;SDS011;31429;42.674;23.350;2023-01-09T02:49:00;77.83;;;58.77;;
23163;SDS011;31429;42.674;23.350;2023-01-09T02:50:02;79.70;;;62.13;;
23163;SDS011;31429;42.674;23.350;2023-01-09T02:51:09;76.53;;;58.92;;
23163;SDS011;31429;42.674;23.350;2023-01-09T02:52:19;80.10;;;60.72;;
23163;SDS011;31429;42.674;23.350;2023-01-09T02:53:43;75.90;;;56.45;;
23163;SDS011;31429;42.674;23.350;2023-01-09T02:55:17;75.00;;;56.45;;
23163;SDS011;31429;42.674;23.350;2023-01-09T02:56:32;74.55;;;56.67;;
23163;SDS011;31429;42.674;23.350;2023-01-09T02:57:46;71.53;;;55.25;;
23163;SDS011;31429;42.674;23.350;2023-01-09T02:59:06;71.85;;;54.05;;
23163;SDS011;31429;42.674;23.350;2023-01-09T03:00:23;70.05;;;54.53;;
23163;SDS011;31429;42.674;23.350;2023-01-09T03:01:34;69.85;;;53.35;;
23163;SDS011;31429;42.674;23.350;2023-01-09T03:02:46;71.45;;;55.80;;
23163;SDS011;31429;42.674;23.350;2023-01-09T03:03:51;69.97;;;54.53;;
23163;SDS011;31429;42.674;23.350;2023-01-09T03:05:05;71.78;;;52.85;;
23163;SDS011;31429;42.674;23.350;2023-01-09T03:06:11;69.15;;;51.22;;
23163;SDS011;31429;42.674;23.350;2023-01-09T03:07:20;66.07;;;52.33;;
23163;SDS011;31429;42.674;23.350;2023-01-09T03:08:26;69.57;;;53.67;;
23163;SDS011;31429;42.674;23.350;2023-01-09T03:09:34;69.38;;;52.08;;
23163;SDS011;31429;42.674;23.350;2023-01-09T03:10:39;71.25;;;53.22;;
23163;SDS011;31429;42.674;23.350;2023-01-09T03:11:45;78.45;;;58.00;;
23163;SDS011;31429;42.674;23.350;2023-01-09T03:12:49;71.70;;;55.47;;
23163;SDS011;31429;42.674;23.350;2023-01-09T03:13:53;77.93;;;57.55;;
23163;SDS011;31429;42.674;23.350;2023-01-09T03:14:56;72.38;;;55.35;;
23163;SDS011;31429;42.674;23.350;2023-01-09T03:15:59;71.43;;;54.38;;
23163;SDS011;31429;42.674;23.350;2023-01-09T03:17:06;70.95;;;53.13;;
23163;SDS011;31429;42.674;23.350;2023-01-09T03:18:13;68.68;;;50.95;;
23163;SDS011;31429;42.674;23.350;2023-01-09T03:19:17;65.90;;;51.38;;
23163;SDS011;31429;42.674;23.350;2023-01-09T03:20:21;72.22;;;53.33;;
23163;SDS011;31429;42.674;23.350;2023-01-09T03:21:23;76.85;;;55.42;;
23163;SDS011;31429;42.674;23.350;2023-01-09T03:22:26;71.63;;;53.92;;
23163;SDS011;31429;42.674;23.350;2023-01-09T03:23:26;74.33;;;56.23;;
23163;SDS011;31429;42.674;23.350;2023-01-09T03:24:27;78.03;;;55.17;;
23163;SDS011;31429;42.674;23.350;2023-01-09T03:25:28;71.80;;;53.93;;
23163;SDS011;31429;42.674;23.350;2023-01-09T03:26:30;69.35;;;52.53;;
23163;SDS011;31429;42.674;23.350;2023-01-09T03:27:30;76.73;;;55.33;;
23163;SDS011;31429;42.674;23.350;2023-01-09T03:28:31;68.37;;;53.23;;
23163;SDS011;31429;42.674;23.350;2023-01-09T03:29:32;68.23;;;51.67;;
23163;SDS011;31429;42.674;23.350;2023-01-09T03:30:33;75.90;;;56.03;;
23163;SDS011;31429;42.674;23.350;2023-01-09T03:31:35;70.28;;;53.60;;
23163;SDS011;31429;42.674;23.350;2023-01-09T03:32:35;76.03;;;54.13;;
23163;SDS011;31429;42.674;23.350;2023-01-09T03:33:37;70.23;;;52.33;;
23163;SDS011;31429;42.674;23.350;2023-01-09T03:34:39;66.95;;;51.22;;
23163;SDS011;31429;42.674;23.350;2023-01-09T03:35:39;65.47;;;51.70;;
23163;SDS011;31429;42.674;23.350;2023-01-09T03:36:40;68.13;;;52.07;;
23163;SDS011;31429;42.674;23.350;2023-01-09T03:37:41;70.07;;;53.63;;
23163;SDS011;31429;42.674;23.350;2023-01-09T03:38:41;75.07;;;58.20;;
23163;SDS011;31429;42.674;23.350;2023-01-09T03:39:42;79.33;;;63.57;;
23163;SDS011;31429;42.674;23.350;2023-01-09T03:40:43;86.50;;;65.80;;
23163;SDS011;31429;42.674;23.350;2023-01-09T03:41:43;81.33;;;60.90;;
23163;SDS011;31429;42.674;23.350;2023-01-09T03:42:44;78.10;;;63.27;;
23163;SDS011;31429;42.674;23.350;2023-01-09T03:43:45;81.00;;;65.80;;
23163;SDS011;31429;42.674;23.350;2023-01-09T03:44:47;88.72;;;70.30;;
23163;SDS011;31429;42.674;23.350;2023-01-09T03:45:49;89.32;;;74.63;;
23163;SDS011;31429;42.674;23.350;2023-01-09T03:46:50;90.10;;;73.07;;
23163;SDS011;31429;42.674;23.350;2023-01-09T03:47:51;84.03;;;68.07;;
23163;SDS011;31429;42.674;23.350;2023-01-09T03:48:53;83.03;;;68.87;;
23163;SDS011;31429;42.674;23.350;2023-01-09T03:49:53;81.20;;;64.03;;
23163;SDS011;31429;42.674;23.350;2023-01-09T03:50:54;81.17;;;68.27;;
23163;SDS011;31429;42.674;23.350;2023-01-09T03:51:55;82.57;;;64.40;;
23163;SDS011;31429;42.674;23.350;2023-01-09T03:52:56;78.53;;;61.90;;
23163;SDS011;31429;42.674;23.350;2023-01-09T03:53:56;76.40;;;60.97;;
23163;SDS011;31429;42.674;23.350;2023-01-09T03:54:57;77.57;;;64.13;;
23163;SDS011;31429;42.674;23.350;2023-01-09T03:55:58;79.97;;;61.40;;
23163;SDS011;31429;42.674;23.350;2023-01-09T03:56:58;76.53;;;59.70;;
23163;SDS011;31429;42.674;23.350;2023-01-09T03:57:59;65.73;;;53.17;;
23163;SDS011;31429;42.674;23.350;2023-01-09T03:59:00;68.70;;;53.83;;
23163;SDS011;31429;42.674;23.350;2023-01-09T04:00:00;67.67;;;55.03;;
23163;SDS011;31429;42.674;23.350;2023-01-09T04:01:02;68.93;;;53.25;;
23163;SDS011;31429;42.674;23.350;2023-01-09T04:02:05;64.88;;;53.35;;
23163;SDS011;31429;42.674;23.350;2023-01-09T04:03:06;74.22;;;57.58;;
23163;SDS011;31429;42.674;23.350;2023-01-09T04:04:09;69.15;;;56.40;;
23163;SDS011;31429;42.674;23.350;2023-01-09T04:05:10;67.97;;;54.65;;
23163;SDS011;31429;42.674;23.350;2023-01-09T04:06:11;76.53;;;61.73;;
23163;SDS011;31429;42.674;23.350;2023-01-09T04:07:11;82.97;;;64.10;;
23163;SDS011;31429;42.674;23.350;2023-01-09T04:08:12;85.83;;;67.33;;
23163;SDS011;31429;42.674;23.350;2023-01-09T04:09:13;87.85;;;68.25;;
23163;SDS011;31429;42.674;23.350;2023-01-09T04:10:14;83.40;;;68.70;;
23163;SDS011;31429;42.674;23.350;2023-01-09T04:11:15;84.47;;;69.15;;
23163;SDS011;31429;42.674;23.350;2023-01-09T04:12:17;79.13;;;62.58;;
23163;SDS011;31429;42.674;23.350;2023-01-09T04:13:17;77.70;;;60.50;;
23163;SDS011;31429;42.674;23.350;2023-01-09T04:14:19;74.37;;;61.13;;
23163;SDS011;31429;42.674;23.350;2023-01-09T04:15:20;82.32;;;64.45;;
23163;SDS011;31429;42.674;23.350;2023-01-09T04:16:20;81.13;;;63.50;;
23163;SDS011;31429;42.674;23.350;2023-01-09T04:17:21;75.63;;;60.37;;
23163;SDS011;31429;42.674;23.350;2023-01-09T04:18:22;80.10;;;61.23;;
23163;SDS011;31429;42.674;23.350;2023-01-09T04:19:24;84.73;;;64.63;;
23163;SDS011;31429;42.674;23.350;2023-01-09T04:20:24;82.00;;;66.63;;
23163;SDS011;31429;42.674;23.350;2023-01-09T04:21:25;83.43;;;67.00;;
23163;SDS011;31429;42.674;23.350;2023-01-09T04:22:25;83.03;;;67.70;;
23163;SDS011;31429;42.674;23.350;2023-01-09T04:23:26;86.30;;;67.83;;
23163;SDS011;31429;42.674;23.350;2023-01-09T04:24:27;86.60;;;68.53;;
23163;SDS011;31429;42.674;23.350;2023-01-09T04:25:28;89.20;;;69.87;;
23163;SDS011;31429;42.674;23.350;2023-01-09T04:26:28;90.50;;;71.20;;
23163;SDS011;31429;42.674;23.350;2023-01-09T04:27:29;88.40;;;71.50;;
23163;SDS011;31429;42.674;23.350;2023-01-09T04:28:30;92.03;;;72.37;;
23163;SDS011;31429;42.674;23.350;2023-01-09T04:29:30;86.53;;;69.70;;
23163;SDS011;31429;42.674;23.350;2023-01-09T04:30:31;90.13;;;70.47;;
23163;SDS011;31429;42.674;23.350;2023-01-09T04:31:31;88.27;;;69.43;;
23163;SDS011;31429;42.674;23.350;2023-01-09T04:32:32;78.43;;;64.47;;
23163;SDS011;31429;42.674;23.350;2023-01-09T04:33:33;84.77;;;65.57;;
23163;SDS011;31429;42.674;23.350;2023-01-09T04:34:35;83.43;;;66.83;;
23163;SDS011;31429;42.674;23.350;2023-01-09T04:35:35;82.50;;;68.88;;
23163;SDS011;31429;42.674;23.350;2023-01-09T04:36:36;87.30;;;69.00;;
23163;SDS011;31429;42.674;23.350;2023-01-09T04:37:37;84.82;;;68.45;;
23163;SDS011;31429;42.674;23.350;2023-01-09T04:38:38;82.27;;;64.73;;
23163;SDS011;31429;42.674;23.350;2023-01-09T04:39:39;84.03;;;67.03;;
23163;SDS011;31429;42.674;23.350;2023-01-09T04:40:45;85.55;;;65.63;;
23163;SDS011;31429;42.674;23.350;2023-01-09T04:41:46;79.68;;;66.65;;
23163;SDS011;31429;42.674;23.350;2023-01-09T04:42:49;84.20;;;66.55;;
23163;SDS011;31429;42.674;23.350;2023-01-09T04:43:50;81.17;;;64.17;;
23163;SDS011;31429;42.674;23.350;2023-01-09T04:44:51;76.50;;;61.63;;
23163;SDS011;31429;42.674;23.350;2023-01-09T04:45:53;73.70;;;59.55;;
23163;SDS011;31429;42.674;23.350;2023-01-09T04:46:54;80.07;;;60.40;;
23163;SDS011;31429;42.674;23.350;2023-01-09T04:47:55;72.30;;;56.38;;
23163;SDS011;31429;42.674;23.350;2023-01-09T04:48:56;74.03;;;58.77;;
23163;SDS011;31429;42.674;23.350;2023-01-09T04:49:58;75.00;;;57.13;;
23163;SDS011;31429;42.674;23.350;2023-01-09T04:50:59;79.50;;;60.65;;
23163;SDS011;31429;42.674;23.350;2023-01-09T04:52:00;84.87;;;62.40;;
23163;SDS011;31429;42.674;23.350;2023-01-09T04:53:00;79.70;;;60.67;;
23163;SDS011;31429;42.674;23.350;2023-01-09T04:54:01;72.73;;;59.47;;
23163;SDS011;31429;42.674;23.350;2023-01-09T04:55:02;79.00;;;58.95;;
23163;SDS011;31429;42.674;23.350;2023-01-09T04:56:04;79.38;;;60.97;;
23163;SDS011;31429;42.674;23.350;2023-01-09T04:57:05;77.80;;;61.90;;
23163;SDS011;31429;42.674;23.350;2023-01-09T04:58:06;80.03;;;60.73;;
23163;SDS011;31429;42.674;23.350;2023-01-09T04:59:06;80.00;;;60.63;;
23163;SDS011;31429;42.674;23.350;2023-01-09T05:00:08;82.30;;;61.72;;
23163;SDS011;31429;42.674;23.350;2023-01-09T05:01:11;82.28;;;62.08;;
23163;SDS011;31429;42.674;23.350;2023-01-09T05:02:12;78.33;;;60.27;;
23163;SDS011;31429;42.674;23.350;2023-01-09T05:03:12;75.83;;;59.23;;
23163;SDS011;31429;42.674;23.350;2023-01-09T05:04:13;76.07;;;61.33;;
23163;SDS011;31429;42.674;23.350;2023-01-09T05:05:15;77.00;;;60.27;;
23163;SDS011;31429;42.674;23.350;2023-01-09T05:06:16;79.75;;;62.80;;
23163;SDS011;31429;42.674;23.350;2023-01-09T05:07:16;76.83;;;60.20;;
23163;SDS011;31429;42.674;23.350;2023-01-09T05:08:17;78.13;;;61.90;;
23163;SDS011;31429;42.674;23.350;2023-01-09T05:09:18;81.20;;;64.40;;
23163;SDS011;31429;42.674;23.350;2023-01-09T05:10:18;79.17;;;61.27;;
23163;SDS011;31429;42.674;23.350;2023-01-09T05:11:19;73.10;;;57.77;;
23163;SDS011;31429;42.674;23.350;2023-01-09T05:12:20;75.37;;;59.87;;
23163;SDS011;31429;42.674;23.350;2023-01-09T05:13:20;74.83;;;58.87;;
23163;SDS011;31429;42.674;23.350;2023-01-09T05:14:21;80.37;;;59.90;;
23163;SDS011;31429;42.674;23.350;2023-01-09T05:15:21;77.37;;;60.33;;
23163;SDS011;31429;42.674;23.350;2023-01-09T05:16:22;83.10;;;61.60;;
23163;SDS011;31429;42.674;23.350;2023-01-09T05:17:23;83.17;;;63.00;;
23163;SDS011;31429;42.674;23.350;2023-01-09T05:18:24;83.20;;;63.77;;
23163;SDS011;31429;42.674;23.350;2023-01-09T05:19:24;85.50;;;65.20;;
23163;SDS011;31429;42.674;23.350;2023-01-09T05:20:26;79.23;;;62.80;;
23163;SDS011;31429;42.674;23.350;2023-01-09T05:21:27;79.68;;;63.10;;
23163;SDS011;31429;42.674;23.350;2023-01-09T05:22:28;81.57;;;64.50;;
23163;SDS011;31429;42.674;23.350;2023-01-09T05:23:28;81.37;;;63.73;;
23163;SDS011;31429;42.674;23.350;2023-01-09T05:24:29;78.60;;;60.03;;
23163;SDS011;31429;42.674;23.350;2023-01-09T05:25:30;79.03;;;62.30;;
23163;SDS011;31429;42.674;23.350;2023-01-09T05:26:30;79.63;;;62.80;;
23163;SDS011;31429;42.674;23.350;2023-01-09T05:27:31;84.33;;;64.37;;
23163;SDS011;31429;42.674;23.350;2023-01-09T05:28:32;79.90;;;61.83;;
23163;SDS011;31429;42.674;23.350;2023-01-09T05:29:32;80.53;;;62.30;;
23163;SDS011;31429;42.674;23.350;2023-01-09T05:30:33;75.33;;;60.27;;
23163;SDS011;31429;42.674;23.350;2023-01-09T05:31:34;83.20;;;63.33;;
23163;SDS011;31429;42.674;23.350;2023-01-09T05:32:34;82.10;;;63.80;;
23163;SDS011;31429;42.674;23.350;2023-01-09T05:33:35;82.50;;;63.30;;
23163;SDS011;31429;42.674;23.350;2023-01-09T05:34:35;86.57;;;65.67;;
23163;SDS011;31429;42.674;23.350;2023-01-09T05:35:37;83.47;;;65.37;;
23163;SDS011;31429;42.674;23.350;2023-01-09T05:36:38;84.47;;;65.25;;
23163;SDS011;31429;42.674;23.350;2023-01-09T05:37:39;84.37;;;66.13;;
23163;SDS011;31429;42.674;23.350;2023-01-09T05:38:39;91.80;;;68.30;;
23163;SDS011;31429;42.674;23.350;2023-01-09T05:39:40;212.27;;;150.53;;
23163;SDS011;31429;42.674;23.350;2023-01-09T05:40:41;259.80;;;188.10;;
23163;SDS011;31429;42.674;23.350;2023-01-09T05:41:41;202.93;;;142.47;;
23163;SDS011;31429;42.674;23.350;2023-01-09T05:42:42;179.50;;;127.23;;
23163;SDS011;31429;42.674;23.350;2023-01-09T05:43:43;118.47;;;87.90;;
23163;SDS011;31429;42.674;23.350;2023-01-09T05:44:44;89.83;;;68.17;;
23163;SDS011;31429;42.674;23.350;2023-01-09T05:45:44;133.63;;;94.20;;
23163;SDS011;31429;42.674;23.350;2023-01-09T05:46:45;148.47;;;108.60;;
23163;SDS011;31429;42.674;23.350;2023-01-09T05:47:46;706.90;;;318.67;;
23163;SDS011;31429;42.674;23.350;2023-01-09T05:48:46;319.93;;;173.67;;
23163;SDS011;31429;42.674;23.350;2023-01-09T05:49:47;123.53;;;91.10;;
23163;SDS011;31429;42.674;23.350;2023-01-09T05:50:49;131.60;;;97.60;;
23163;SDS011;31429;42.674;23.350;2023-01-09T05:51:50;207.75;;;149.70;;
23163;SDS011;31429;42.674;23.350;2023-01-09T05:52:50;215.53;;;155.20;;
23163;SDS011;31429;42.674;23.350;2023-01-09T05:53:51;159.80;;;115.03;;
23163;SDS011;31429;42.674;23.350;2023-01-09T05:54:51;109.57;;;84.60;;
23163;SDS011;31429;42.674;23.350;2023-01-09T05:55:52;99.17;;;76.20;;
23163;SDS011;31429;42.674;23.350;2023-01-09T05:56:53;115.83;;;85.03;;
23163;SDS011;31429;42.674;23.350;2023-01-09T05:57:53;104.97;;;82.10;;
23163;SDS011;31429;42.674;23.350;2023-01-09T05:58:54;97.27;;;78.77;;
23163;SDS011;31429;42.674;23.350;2023-01-09T05:59:55;104.57;;;78.60;;
23163;SDS011;31429;42.674;23.350;2023-01-09T06:00:56;97.83;;;75.07;;
23163;SDS011;31429;42.674;23.350;2023-01-09T06:01:57;93.15;;;72.40;;
23163;SDS011;31429;42.674;23.350;2023-01-09T06:02:58;89.80;;;72.40;;
23163;SDS011;31429;42.674;23.350;2023-01-09T06:03:59;94.43;;;74.00;;
23163;SDS011;31429;42.674;23.350;2023-01-09T06:05:00;98.67;;;75.27;;